Terminal Aerodrome Forecast
Issued by NWS

Home | Current Version | Previous Version | Text Only | Print | Product List | Glossary On
Versions: 1 2 3 4 5 6 7 8 9 10 11 12
000
FTUS43 KICT 061729
TAFRSL
TAF
KRSL 061729Z 0618/0718 18020G28KT P6SM SCT250
     FM070100 18015KT P6SM SCT250
     FM070600 19015KT P6SM SCT250 WS015/21045KT
     FM071400 21014KT P6SM SCT250=

USA.gov is the U.S. government's official web portal to all federal, state and local government web resources and services.